createdAt,value
2018-02-02T00:02:18.082Z,17.50
2018-02-02T00:04:45.679Z,18.03
2018-02-02T00:07:13.356Z,18.00
2018-02-02T00:09:40.951Z,17.37
2018-02-02T00:12:08.525Z,17.73
2018-02-02T00:14:36.129Z,17.37
2018-02-02T00:17:03.720Z,16.20
2018-02-02T00:19:31.263Z,17.20
2018-02-02T00:21:58.861Z,15.90
2018-02-02T00:24:26.457Z,16.00
2018-02-02T00:26:53.984Z,16.50
2018-02-02T00:29:21.581Z,17.53
2018-02-02T00:31:49.180Z,16.60
2018-02-02T00:34:16.772Z,15.00
2018-02-02T00:36:44.355Z,16.23
2018-02-02T00:39:11.895Z,15.73
2018-02-02T00:41:39.492Z,16.27
2018-02-02T00:44:07.093Z,16.33
2018-02-02T00:46:34.695Z,15.53
2018-02-02T00:49:02.222Z,15.83
2018-02-02T00:54:30.802Z,15.13
2018-02-02T00:56:58.320Z,14.73
2018-02-02T00:59:25.913Z,14.43
2018-02-02T01:01:53.513Z,15.83
2018-02-02T01:04:21.034Z,15.00
2018-02-02T01:06:48.680Z,15.03
2018-02-02T01:09:16.280Z,14.67
2018-02-02T01:11:43.924Z,15.00
2018-02-02T01:14:11.520Z,15.30
2018-02-02T01:16:39.046Z,15.47
2018-02-02T01:19:06.701Z,14.93
2018-02-02T01:21:34.377Z,14.00
2018-02-02T01:24:01.954Z,14.50
2018-02-02T01:26:29.608Z,14.43
2018-02-02T01:28:57.212Z,14.90
2018-02-02T01:31:24.884Z,14.93
2018-02-02T01:33:52.484Z,14.33
2018-02-02T01:36:20.132Z,15.63
2018-02-02T01:38:47.721Z,13.30
2018-02-02T01:41:15.316Z,14.00
2018-02-02T01:43:42.928Z,14.33
2018-02-02T01:46:10.582Z,13.87
2018-02-02T01:48:38.168Z,14.33
2018-02-02T01:51:05.815Z,14.03
2018-02-02T01:53:33.424Z,13.10
2018-02-02T01:56:00.962Z,13.63
2018-02-02T01:58:28.618Z,13.57
2018-02-02T02:00:56.221Z,13.83
2018-02-02T02:03:23.759Z,13.93
2018-02-02T02:05:51.396Z,13.87
2018-02-02T02:08:18.988Z,14.10
2018-02-02T02:10:46.510Z,14.30
2018-02-02T02:13:14.151Z,14.33
2018-02-02T02:15:41.694Z,12.83
2018-02-02T02:18:09.364Z,14.60
2018-02-02T02:20:36.952Z,13.70
2018-02-02T02:23:04.478Z,12.30
2018-02-02T02:25:32.166Z,12.57
2018-02-02T02:27:59.697Z,13.47
2018-02-02T02:30:27.346Z,12.83
2018-02-02T02:32:54.940Z,13.17
2018-02-02T02:35:22.528Z,14.20
2018-02-02T02:37:50.052Z,13.20
2018-02-02T02:40:17.712Z,13.63
2018-02-02T02:42:45.368Z,12.93
2018-02-02T02:45:12.973Z,13.73
2018-02-02T02:47:40.565Z,13.07
2018-02-02T02:50:08.215Z,12.63
2018-02-02T02:52:35.808Z,13.07
2018-02-02T02:55:03.468Z,13.63
2018-02-02T02:57:31.061Z,13.63
2018-02-02T02:59:58.722Z,13.23
2018-02-02T03:02:26.320Z,13.00
2018-02-02T03:04:53.977Z,13.50
2018-02-02T03:07:21.576Z,12.23
2018-02-02T03:09:49.168Z,13.20
2018-02-02T03:12:16.834Z,12.83
2018-02-02T03:14:44.428Z,12.37
2018-02-02T03:17:12.022Z,13.07
2018-02-02T03:19:39.559Z,13.10
2018-02-02T03:22:07.189Z,12.13
2018-02-02T03:24:34.829Z,12.63
2018-02-02T03:27:02.433Z,12.80
2018-02-02T03:29:30.127Z,12.27
2018-02-02T03:31:57.727Z,12.80
2018-02-02T03:34:25.396Z,13.20
2018-02-02T03:36:52.992Z,12.53
2018-02-02T03:39:20.518Z,12.87
2018-02-02T03:41:48.176Z,12.40
2018-02-02T03:44:15.713Z,13.43
2018-02-02T03:46:43.231Z,12.17
2018-02-02T03:49:10.825Z,13.40
2018-02-02T03:51:38.435Z,12.67
2018-02-02T03:54:06.090Z,13.10
2018-02-02T03:56:33.676Z,12.80
2018-02-02T03:59:01.264Z,13.63
2018-02-02T04:01:28.853Z,12.53
2018-02-02T04:03:56.616Z,12.90
2018-02-02T04:06:24.213Z,12.50
2018-02-02T04:08:51.744Z,13.17
2018-02-02T04:11:19.340Z,12.10
2018-02-02T04:13:46.931Z,13.00
2018-02-02T04:16:14.581Z,11.80
2018-02-02T04:18:42.102Z,12.57
2018-02-02T04:21:09.750Z,12.70
2018-02-02T04:23:37.344Z,12.07
2018-02-02T04:26:04.867Z,13.10
2018-02-02T04:28:32.521Z,12.13
2018-02-02T04:31:00.047Z,12.40
2018-02-02T04:33:27.652Z,11.93
2018-02-02T04:35:55.278Z,12.70
2018-02-02T04:38:22.992Z,12.07
2018-02-02T04:40:50.514Z,13.10
2018-02-02T04:43:18.096Z,12.30
2018-02-02T04:45:45.689Z,11.70
2018-02-02T04:48:13.215Z,12.50
2018-02-02T04:50:40.739Z,11.80
2018-02-02T04:53:08.336Z,11.43
2018-02-02T04:55:35.923Z,12.27
2018-02-02T04:58:03.513Z,12.40
2018-02-02T05:00:31.108Z,12.83
2018-02-02T05:02:58.758Z,13.10
2018-02-02T05:05:26.280Z,12.23
2018-02-02T05:07:53.925Z,12.27
2018-02-02T05:10:21.512Z,11.23
2018-02-02T05:12:49.042Z,12.13
2018-02-02T05:15:16.698Z,12.77
2018-02-02T05:17:44.365Z,12.40
2018-02-02T05:20:11.886Z,12.80
2018-02-02T05:22:39.472Z,12.77
2018-02-02T05:25:07.160Z,12.70
2018-02-02T05:27:34.682Z,12.17
2018-02-02T05:30:02.328Z,12.43
2018-02-02T05:32:29.983Z,11.67
2018-02-02T05:34:57.577Z,12.40
2018-02-02T05:37:25.173Z,12.20
2018-02-02T05:39:52.820Z,12.17
2018-02-02T05:42:20.414Z,14.30
2018-02-02T05:44:48.013Z,25.30
2018-02-02T05:47:15.619Z,27.67
2018-02-02T05:49:43.213Z,27.27
2018-02-02T05:52:10.805Z,27.37
2018-02-02T05:54:38.343Z,23.07
2018-02-02T05:57:05.932Z,21.30
2018-02-02T05:59:33.581Z,19.77
2018-02-02T06:02:01.207Z,19.53
2018-02-02T06:04:28.941Z,19.00
2018-02-02T06:06:56.463Z,17.17
2018-02-02T06:09:23.990Z,18.10
2018-02-02T06:11:51.528Z,18.27
2018-02-02T06:14:19.046Z,17.70
2018-02-02T06:16:46.631Z,17.73
2018-02-02T06:19:26.044Z,18.13
2018-02-02T06:21:53.695Z,16.80
2018-02-02T06:24:21.223Z,17.43
2018-02-02T06:26:48.813Z,17.03
2018-02-02T06:29:16.339Z,16.73
2018-02-02T06:31:43.865Z,16.80
2018-02-02T06:34:11.402Z,16.50
2018-02-02T06:36:38.995Z,15.80
2018-02-02T06:39:06.526Z,16.17
2018-02-02T06:41:34.220Z,15.43
2018-02-02T06:44:01.868Z,15.43
2018-02-02T06:46:29.393Z,15.37
2018-02-02T06:48:56.914Z,15.97
2018-02-02T06:51:24.519Z,16.03
2018-02-02T06:53:52.176Z,16.87
2018-02-02T06:56:19.702Z,15.47
2018-02-02T06:58:47.260Z,16.50
2018-02-02T07:01:14.858Z,15.10
2018-02-02T07:03:42.558Z,15.00
2018-02-02T07:06:10.197Z,15.07
2018-02-02T07:08:37.727Z,15.87
2018-02-02T07:11:05.330Z,15.00
2018-02-02T07:13:32.950Z,14.63
2018-02-02T07:16:00.565Z,15.03
2018-02-02T07:18:28.161Z,15.20
2018-02-02T07:20:55.683Z,14.90
2018-02-02T07:23:23.267Z,14.20
2018-02-02T07:25:50.900Z,15.33
2018-02-02T07:28:18.492Z,14.93
2018-02-02T07:30:46.097Z,14.37
2018-02-02T07:33:13.748Z,15.10
2018-02-02T07:35:41.396Z,14.60
2018-02-02T07:38:08.995Z,15.53
2018-02-02T07:40:36.644Z,14.57
2018-02-02T07:43:04.331Z,15.37
2018-02-02T07:45:31.924Z,16.30
2018-02-02T07:47:59.533Z,15.60
2018-02-02T07:50:27.091Z,14.50
2018-02-02T07:52:54.672Z,15.13
2018-02-02T07:55:22.360Z,15.07
2018-02-02T07:57:50.019Z,16.43
2018-02-02T08:00:17.681Z,15.33
2018-02-02T08:02:45.214Z,15.73
2018-02-02T08:05:12.847Z,15.10
2018-02-02T08:07:40.362Z,15.60
2018-02-02T08:10:08.017Z,15.07
2018-02-02T08:12:35.638Z,15.20
2018-02-02T08:15:03.237Z,15.27
2018-02-02T08:17:30.767Z,14.50
2018-02-02T08:19:58.377Z,15.80
2018-02-02T08:22:26.004Z,15.03
2018-02-02T08:24:53.638Z,15.73
2018-02-02T08:27:21.285Z,15.47
2018-02-02T08:29:48.835Z,15.10
2018-02-02T08:32:16.430Z,16.00
2018-02-02T08:34:44.041Z,15.73
2018-02-02T08:37:11.664Z,15.53
2018-02-02T08:39:39.485Z,15.20
2018-02-02T08:42:07.072Z,16.13
2018-02-02T08:44:35.882Z,15.63
2018-02-02T08:47:03.481Z,16.40
2018-02-02T08:49:31.068Z,16.27
2018-02-02T08:51:58.652Z,16.37
2018-02-02T08:54:26.249Z,16.30
2018-02-02T08:56:53.775Z,16.37
2018-02-02T08:59:21.369Z,15.13
2018-02-02T09:01:54.409Z,15.67
2018-02-02T09:04:22.132Z,15.37
2018-02-02T09:06:49.720Z,15.43
2018-02-02T09:09:17.309Z,15.00
2018-02-02T09:11:44.934Z,16.03
2018-02-02T09:14:12.592Z,15.23
2018-02-02T09:16:40.235Z,14.97
2018-02-02T09:19:08.072Z,15.60
2018-02-02T09:21:35.731Z,15.77
2018-02-02T09:24:03.250Z,14.67
2018-02-02T09:26:30.897Z,15.93
2018-02-02T09:28:59.837Z,15.37
2018-02-02T09:31:27.924Z,15.77
2018-02-02T09:33:55.329Z,15.47
2018-02-02T09:36:22.994Z,15.17
2018-02-02T09:38:50.646Z,15.17
2018-02-02T09:41:18.238Z,15.43
2018-02-02T09:43:45.880Z,15.57
2018-02-02T09:46:13.466Z,14.93
2018-02-02T09:48:41.113Z,14.40
2018-02-02T09:51:08.700Z,15.53
2018-02-02T09:53:36.296Z,14.57
2018-02-02T09:56:03.814Z,14.67
2018-02-02T09:58:31.338Z,15.03
2018-02-02T10:00:58.989Z,15.53
2018-02-02T10:03:26.526Z,14.70
2018-02-02T10:05:54.176Z,14.80
2018-02-02T10:08:21.768Z,15.00
2018-02-02T10:10:49.384Z,13.90
2018-02-02T10:13:16.981Z,14.23
2018-02-02T10:15:44.598Z,14.70
2018-02-02T10:18:12.136Z,14.37
2018-02-02T10:20:39.741Z,14.53
2018-02-02T10:23:07.335Z,14.20
2018-02-02T10:25:34.929Z,14.50
2018-02-02T10:28:02.517Z,13.80
2018-02-02T10:30:30.109Z,14.67
2018-02-02T10:32:57.768Z,14.07
2018-02-02T10:35:25.360Z,15.93
2018-02-02T10:37:52.991Z,21.80
2018-02-02T10:40:20.640Z,25.20
2018-02-02T10:42:48.162Z,26.20
2018-02-02T10:45:15.751Z,26.80
2018-02-02T10:47:43.392Z,23.07
2018-02-02T10:50:10.996Z,23.57
2018-02-02T10:52:38.660Z,22.50
2018-02-02T10:55:06.310Z,22.97
2018-02-02T10:57:33.902Z,22.13
2018-02-02T11:00:01.428Z,20.73
2018-02-02T11:02:34.792Z,20.93
2018-02-02T11:05:02.464Z,20.53
2018-02-02T11:07:30.067Z,21.07
2018-02-02T11:09:57.665Z,19.87
2018-02-02T11:12:25.190Z,21.47
2018-02-02T11:14:52.844Z,20.33
2018-02-02T11:17:20.366Z,20.70
2018-02-02T11:19:47.887Z,19.23
2018-02-02T11:22:15.531Z,20.63
2018-02-02T11:24:43.125Z,20.10
2018-02-02T11:27:10.662Z,19.43
2018-02-02T11:29:38.312Z,21.67
2018-02-02T11:32:05.834Z,22.77
2018-02-02T11:34:33.480Z,25.07
2018-02-02T11:37:01.081Z,23.63
2018-02-02T11:39:28.797Z,23.67
2018-02-02T11:41:56.393Z,23.53
2018-02-02T11:44:23.984Z,24.23
2018-02-02T11:46:51.510Z,24.20
2018-02-02T11:49:19.156Z,23.87
2018-02-02T11:51:46.757Z,24.23
2018-02-02T11:54:14.357Z,24.13
2018-02-02T11:56:41.882Z,22.90
2018-02-02T11:59:09.482Z,23.17
2018-02-02T12:01:37.035Z,22.47
2018-02-02T12:04:04.629Z,22.00
2018-02-02T12:06:32.174Z,22.70
2018-02-02T12:08:59.776Z,21.97
2018-02-02T12:11:27.367Z,21.17
2018-02-02T12:13:55.128Z,21.20
2018-02-02T12:16:22.819Z,22.10
2018-02-02T13:02:53.117Z,18.67
2018-02-02T13:05:20.760Z,20.20
2018-02-02T13:07:48.293Z,19.40
2018-02-02T13:10:15.888Z,19.23
2018-02-02T13:12:43.418Z,19.30
2018-02-02T13:15:10.947Z,18.87
2018-02-02T13:17:38.541Z,18.63
2018-02-02T13:20:06.168Z,18.63
2018-02-02T13:22:33.856Z,18.50
2018-02-02T13:25:01.392Z,18.23
2018-02-02T13:27:29.022Z,19.00
2018-02-02T13:29:56.553Z,18.40
2018-02-02T13:32:24.083Z,17.63
2018-02-02T13:34:51.684Z,17.97
2018-02-02T13:37:19.293Z,16.63
2018-02-02T13:39:46.876Z,17.33
2018-02-02T13:42:14.525Z,16.97
2018-02-02T13:44:42.132Z,16.23
2018-02-02T13:47:09.659Z,17.43
2018-02-02T13:49:37.253Z,16.50
2018-02-02T13:52:04.906Z,16.13
2018-02-02T13:54:32.492Z,14.93
2018-02-02T13:57:00.090Z,16.30
2018-02-02T13:59:27.689Z,15.93
2018-02-02T14:01:55.267Z,15.13
2018-02-02T14:04:22.771Z,15.87
2018-02-02T14:06:50.297Z,15.43
2018-02-02T14:09:17.889Z,15.13
2018-02-02T14:11:45.479Z,14.57
2018-02-02T14:14:13.006Z,15.50
2018-02-02T14:16:40.596Z,13.93
2018-02-02T14:19:08.123Z,14.43
2018-02-02T14:21:35.708Z,13.93
2018-02-02T14:24:03.320Z,14.30
2018-02-02T14:26:30.908Z,13.97
2018-02-02T14:28:58.501Z,15.30
2018-02-02T14:31:26.122Z,13.73
2018-02-02T14:33:53.737Z,13.43
2018-02-02T14:36:21.369Z,13.30
2018-02-02T14:38:49.025Z,13.37
2018-02-02T14:41:16.617Z,13.97
2018-02-02T16:18:42.292Z,29.10
2018-02-02T16:21:10.002Z,27.53
2018-02-02T16:23:37.629Z,28.50
2018-02-02T16:26:05.313Z,28.23
2018-02-02T16:28:32.862Z,27.37
2018-02-02T16:31:00.477Z,27.23
2018-02-02T16:33:28.007Z,26.90
2018-02-02T16:35:55.583Z,24.23
2018-02-02T16:38:23.156Z,26.90
2018-02-02T16:41:04.099Z,25.63
2018-02-02T16:43:36.061Z,25.97
2018-02-02T16:46:10.525Z,24.77
2018-02-02T16:48:38.776Z,24.20
2018-02-02T16:51:06.621Z,27.67
2018-02-02T16:53:40.387Z,28.20
2018-02-02T16:56:08.045Z,26.27
2018-02-02T16:58:47.516Z,26.67
2018-02-02T17:01:15.951Z,25.83
2018-02-02T17:03:44.295Z,25.80
2018-02-02T17:06:11.901Z,24.17
2018-02-02T17:08:39.451Z,25.77
2018-02-02T17:11:07.004Z,25.77
2018-02-02T17:13:41.582Z,24.37
2018-02-02T17:16:09.835Z,25.30
2018-02-02T17:18:37.507Z,27.33
2018-02-02T17:21:05.116Z,27.80
2018-02-02T17:23:33.894Z,25.60
2018-02-02T17:26:01.742Z,25.33
2018-02-02T17:28:29.341Z,25.60
2018-02-02T17:30:56.878Z,26.40
2018-02-02T17:33:24.576Z,26.13
2018-02-02T17:35:52.220Z,26.03
2018-02-02T17:38:19.742Z,24.07
2018-02-02T17:40:47.398Z,25.20
2018-02-02T17:43:15.004Z,25.13
2018-02-02T17:45:42.603Z,26.37
2018-02-02T17:48:10.262Z,25.47
2018-02-02T17:50:37.789Z,25.70
2018-02-02T17:53:05.394Z,26.90
2018-02-02T17:55:33.006Z,24.63
2018-02-02T17:58:00.530Z,23.60
2018-02-02T18:00:32.710Z,25.10
2018-02-02T18:03:01.067Z,25.93
2018-02-02T18:05:28.615Z,25.37
2018-02-02T18:07:56.236Z,24.37
2018-02-02T18:10:24.022Z,24.97
2018-02-02T18:12:51.642Z,23.67
2018-02-02T18:15:19.452Z,23.07
2018-02-02T18:17:47.109Z,23.20
2018-02-02T18:20:14.931Z,22.67
2018-02-02T18:22:42.526Z,22.07
2018-02-02T18:25:10.124Z,23.00
2018-02-02T18:27:37.655Z,22.17
2018-02-02T18:30:06.984Z,21.10
2018-02-02T18:32:34.646Z,21.60
2018-02-02T18:35:02.302Z,21.80
2018-02-02T18:37:29.963Z,21.37
2018-02-02T18:39:57.568Z,22.03
2018-02-02T18:42:25.165Z,21.27
2018-02-02T18:44:52.845Z,20.57
2018-02-02T18:47:20.446Z,19.23
2018-02-02T18:49:48.110Z,19.63
2018-02-02T18:52:15.696Z,20.30
2018-02-02T18:54:43.453Z,18.73
2018-02-02T18:57:11.085Z,19.53
2018-02-02T18:59:38.751Z,17.43
2018-02-02T19:02:06.439Z,19.07
2018-02-02T19:04:34.040Z,18.43
2018-02-02T19:07:01.778Z,18.10
2018-02-02T19:09:29.465Z,17.80
2018-02-02T19:11:57.077Z,17.67
2018-02-02T19:14:24.678Z,17.30
2018-02-02T19:16:52.279Z,16.77
2018-02-02T19:19:20.007Z,16.27
2018-02-02T19:21:47.553Z,16.70
2018-02-02T19:24:15.184Z,16.03
2018-02-02T19:26:43.558Z,16.00
2018-02-02T19:29:11.315Z,16.13
2018-02-02T19:31:38.940Z,16.17
2018-02-02T19:34:06.659Z,15.67
2018-02-02T19:36:34.325Z,15.53
2018-02-02T19:39:02.042Z,14.63
2018-02-02T19:41:29.694Z,15.27
2018-02-02T19:43:57.291Z,14.60
2018-02-02T19:46:25.403Z,14.80
2018-02-02T19:48:53.055Z,15.50
2018-02-02T19:51:20.843Z,14.80
2018-02-02T19:53:49.525Z,15.07
2018-02-02T19:56:17.200Z,14.33
2018-02-02T19:58:45.838Z,13.87
2018-02-02T20:01:14.060Z,14.17
2018-02-02T20:03:41.915Z,13.73
2018-02-02T20:06:09.977Z,13.60
2018-02-02T20:08:38.008Z,13.70
2018-02-02T20:11:05.832Z,13.67
2018-02-02T20:13:34.787Z,12.07
2018-02-02T20:16:02.473Z,12.97
2018-02-02T20:18:30.125Z,12.60
2018-02-02T20:20:57.901Z,12.07
2018-02-02T20:23:25.508Z,12.20
2018-02-02T20:25:53.102Z,12.27
2018-02-02T20:28:20.689Z,12.30
2018-02-02T20:30:48.275Z,13.50
2018-02-02T20:33:16.026Z,12.57
2018-02-02T20:35:43.616Z,11.63
2018-02-02T20:38:11.151Z,13.23
2018-02-02T20:40:38.761Z,13.40
2018-02-02T20:43:06.291Z,12.60
2018-02-02T20:45:33.889Z,12.53
2018-02-02T20:48:01.563Z,12.33
2018-02-02T20:50:29.159Z,12.13
2018-02-02T20:52:56.757Z,11.70
2018-02-02T20:55:24.387Z,11.87
2018-02-02T20:57:51.984Z,11.97
2018-02-02T21:00:19.584Z,11.50
2018-02-02T21:02:47.225Z,11.50
2018-02-02T21:05:14.882Z,10.10
2018-02-02T21:07:42.479Z,11.87
2018-02-02T21:10:10.080Z,10.63
2018-02-02T21:12:37.732Z,10.80
2018-02-02T21:15:05.262Z,10.40
2018-02-02T21:17:32.856Z,10.00
2018-02-02T21:20:00.457Z,10.60
2018-02-02T21:22:28.111Z,9.80
2018-02-02T21:24:55.634Z,9.50
2018-02-02T21:27:23.336Z,10.10
2018-02-02T21:29:50.992Z,9.93
2018-02-02T21:32:18.535Z,10.10
2018-02-02T21:34:46.158Z,9.37
2018-02-02T21:37:13.991Z,9.37
2018-02-02T21:39:41.601Z,9.43
2018-02-02T21:42:09.126Z,8.77
2018-02-02T21:44:36.718Z,9.47
2018-02-02T21:47:04.356Z,8.53
2018-02-02T21:49:32.037Z,9.03
2018-02-02T21:51:59.619Z,8.73
2018-02-02T21:54:27.267Z,9.00
2018-02-02T21:56:54.811Z,9.30
2018-02-02T21:59:22.404Z,8.17
2018-02-02T22:01:50.187Z,8.93
2018-02-02T22:04:17.921Z,7.93
2018-02-02T22:06:45.527Z,9.10
2018-02-02T22:09:13.175Z,8.13
2018-02-02T22:11:40.699Z,8.43
2018-02-02T22:14:08.292Z,8.33
2018-02-02T22:16:35.875Z,8.60
2018-02-02T22:19:03.439Z,8.47
2018-02-02T22:21:30.975Z,8.23
2018-02-02T22:23:58.571Z,7.93
2018-02-02T22:26:26.157Z,7.60
2018-02-02T22:28:53.788Z,7.77
2018-02-02T22:31:21.399Z,8.37
2018-02-02T22:33:49.000Z,8.10
2018-02-02T22:36:16.776Z,8.20
2018-02-02T22:38:44.307Z,7.03
2018-02-02T22:41:11.827Z,7.27
2018-02-02T22:43:39.405Z,7.47
2018-02-02T22:46:07.013Z,7.73
2018-02-02T22:48:34.656Z,7.27
2018-02-02T22:51:02.175Z,6.93
2018-02-02T22:53:29.765Z,6.70
2018-02-02T22:55:57.279Z,7.43
2018-02-02T22:58:24.869Z,7.10
2018-02-02T23:00:52.387Z,7.10
2018-02-02T23:03:19.903Z,6.40
2018-02-02T23:05:47.548Z,6.33
2018-02-02T23:08:15.067Z,6.87
2018-02-02T23:10:42.658Z,6.60
2018-02-02T23:13:10.182Z,6.53
2018-02-02T23:15:37.817Z,6.17
2018-02-02T23:18:05.418Z,6.40
2018-02-02T23:20:33.199Z,6.17
2018-02-02T23:23:00.715Z,6.30
2018-02-02T23:25:28.364Z,6.57
2018-02-02T23:27:55.964Z,6.00
2018-02-02T23:30:23.496Z,6.53
2018-02-02T23:32:51.054Z,6.60
2018-02-02T23:35:18.696Z,6.57
2018-02-02T23:37:46.280Z,6.03
2018-02-02T23:40:13.921Z,6.53
2018-02-02T23:42:41.435Z,5.93
2018-02-02T23:45:09.037Z,6.33
2018-02-02T23:47:36.611Z,6.33
2018-02-02T23:50:04.153Z,6.60
2018-02-02T23:52:31.839Z,5.77
2018-02-02T23:54:59.437Z,5.37
2018-02-02T23:57:27.003Z,5.97
2018-02-02T23:59:54.640Z,6.13
